sensor_id;sensor_type;location;lat;lon;timestamp;pressure;altitude;pressure_sealevel;temperature;humidity
14757;BME280;62446;53.214;10.398;2022-07-29T00:01:32;101803.00;;;19.39;44.98
14757;BME280;62446;53.214;10.398;2022-07-29T00:04:36;101796.84;;;19.37;44.88
14757;BME280;62446;53.214;10.398;2022-07-29T00:07:40;101797.41;;;19.39;44.95
14757;BME280;62446;53.214;10.398;2022-07-29T00:10:44;101794.88;;;19.38;44.92
14757;BME280;62446;53.214;10.398;2022-07-29T00:13:48;101793.19;;;19.37;44.84
14757;BME280;62446;53.214;10.398;2022-07-29T00:16:54;101787.59;;;19.37;45.00
14757;BME280;62446;53.214;10.398;2022-07-29T00:19:58;101788.47;;;19.37;45.02
14757;BME280;62446;53.214;10.398;2022-07-29T00:23:02;101785.66;;;19.37;44.87
14757;BME280;62446;53.214;10.398;2022-07-29T00:26:06;101781.19;;;19.36;44.91
14757;BME280;62446;53.214;10.398;2022-07-29T00:29:10;101782.28;;;19.35;44.91
14757;BME280;62446;53.214;10.398;2022-07-29T00:32:35;101777.81;;;19.34;45.05
14757;BME280;62446;53.214;10.398;2022-07-29T00:35:39;101770.53;;;19.33;44.90
14757;BME280;62446;53.214;10.398;2022-07-29T00:38:49;101766.91;;;19.33;44.70
14757;BME280;62446;53.214;10.398;2022-07-29T00:41:53;101764.38;;;19.31;44.83
14757;BME280;62446;53.214;10.398;2022-07-29T00:44:57;101761.00;;;19.29;44.79
14757;BME280;62446;53.214;10.398;2022-07-29T00:48:02;101766.03;;;19.27;44.89
14757;BME280;62446;53.214;10.398;2022-07-29T00:51:07;101759.28;;;19.23;44.97
14757;BME280;62446;53.214;10.398;2022-07-29T00:54:12;101764.03;;;19.22;44.93
14757;BME280;62446;53.214;10.398;2022-07-29T00:57:16;101761.50;;;19.21;44.92
14757;BME280;62446;53.214;10.398;2022-07-29T01:00:26;101759.81;;;19.20;44.88
14757;BME280;62446;53.214;10.398;2022-07-29T01:03:31;101756.41;;;19.18;44.94
14757;BME280;62446;53.214;10.398;2022-07-29T01:06:35;101760.34;;;19.17;45.02
14757;BME280;62446;53.214;10.398;2022-07-29T01:09:39;101756.69;;;19.16;45.03
14757;BME280;62446;53.214;10.398;2022-07-29T01:12:50;101753.06;;;19.16;44.98
14757;BME280;62446;53.214;10.398;2022-07-29T01:15:59;101744.94;;;19.14;45.04
14757;BME280;62446;53.214;10.398;2022-07-29T01:19:13;101742.41;;;19.13;44.88
14757;BME280;62446;53.214;10.398;2022-07-29T01:22:28;101737.94;;;19.11;44.87
14757;BME280;62446;53.214;10.398;2022-07-29T01:26:03;101737.38;;;19.09;45.07
14757;BME280;62446;53.214;10.398;2022-07-29T01:29:11;101733.72;;;19.09;44.91
14757;BME280;62446;53.214;10.398;2022-07-29T01:32:19;101731.78;;;19.09;44.77
14757;BME280;62446;53.214;10.398;2022-07-29T01:35:35;101738.47;;;19.08;44.99
14757;BME280;62446;53.214;10.398;2022-07-29T01:38:42;101732.31;;;19.06;44.84
14757;BME280;62446;53.214;10.398;2022-07-29T01:41:55;101732.31;;;19.06;44.95
14757;BME280;62446;53.214;10.398;2022-07-29T01:45:05;101730.63;;;19.05;44.90
14757;BME280;62446;53.214;10.398;2022-07-29T01:48:16;101728.09;;;19.04;44.95
14757;BME280;62446;53.214;10.398;2022-07-29T01:51:25;101717.75;;;19.04;44.93
14757;BME280;62446;53.214;10.398;2022-07-29T01:54:35;101718.00;;;19.03;44.87
14757;BME280;62446;53.214;10.398;2022-07-29T01:57:42;101717.19;;;19.02;44.94
14757;BME280;62446;53.214;10.398;2022-07-29T02:00:49;101725.56;;;19.02;44.91
14757;BME280;62446;53.214;10.398;2022-07-29T02:03:54;101711.88;;;19.01;44.85
14757;BME280;62446;53.214;10.398;2022-07-29T02:07:02;101709.34;;;18.99;45.00
14757;BME280;62446;53.214;10.398;2022-07-29T02:10:08;101707.63;;;18.98;44.85
14757;BME280;62446;53.214;10.398;2022-07-29T02:13:13;101704.28;;;18.96;45.02
14757;BME280;62446;53.214;10.398;2022-07-29T02:16:21;101699.25;;;18.98;44.86
14757;BME280;62446;53.214;10.398;2022-07-29T02:19:26;101696.25;;;18.77;45.41
14757;BME280;62446;53.214;10.398;2022-07-29T02:22:33;101695.09;;;18.73;45.59
14757;BME280;62446;53.214;10.398;2022-07-29T02:25:41;101699.03;;;18.72;45.49
14757;BME280;62446;53.214;10.398;2022-07-29T02:28:47;101699.13;;;18.83;45.21
14757;BME280;62446;53.214;10.398;2022-07-29T02:31:55;101696.34;;;18.88;44.96
14757;BME280;62446;53.214;10.398;2022-07-29T02:35:01;101700.25;;;18.87;45.05
14757;BME280;62446;53.214;10.398;2022-07-29T02:38:05;101701.09;;;18.87;45.03
14757;BME280;62446;53.214;10.398;2022-07-29T02:41:35;101693.25;;;18.84;45.11
14757;BME280;62446;53.214;10.398;2022-07-29T02:44:40;101696.88;;;18.85;45.00
14757;BME280;62446;53.214;10.398;2022-07-29T02:47:48;101695.19;;;18.84;45.04
14757;BME280;62446;53.214;10.398;2022-07-29T02:51:01;101690.13;;;18.81;45.11
14757;BME280;62446;53.214;10.398;2022-07-29T02:54:10;101688.19;;;18.81;45.05
14757;BME280;62446;53.214;10.398;2022-07-29T02:57:21;101692.94;;;18.81;45.07
14757;BME280;62446;53.214;10.398;2022-07-29T03:00:28;101690.97;;;18.81;45.01
14757;BME280;62446;53.214;10.398;2022-07-29T03:03:36;101692.09;;;18.80;45.19
14757;BME280;62446;53.214;10.398;2022-07-29T03:06:42;101687.31;;;18.75;45.04
14757;BME280;62446;53.214;10.398;2022-07-29T03:09:46;101688.97;;;18.76;45.00
14757;BME280;62446;53.214;10.398;2022-07-29T03:12:51;101680.03;;;18.74;44.96
14757;BME280;62446;53.214;10.398;2022-07-29T03:15:56;101674.44;;;18.74;45.18
14757;BME280;62446;53.214;10.398;2022-07-29T03:19:01;101674.97;;;18.71;45.21
14757;BME280;62446;53.214;10.398;2022-07-29T03:22:06;101672.75;;;18.73;45.06
14757;BME280;62446;53.214;10.398;2022-07-29T03:25:11;101675.28;;;18.75;45.11
14757;BME280;62446;53.214;10.398;2022-07-29T03:28:16;101677.25;;;18.74;45.03
14757;BME280;62446;53.214;10.398;2022-07-29T03:31:20;101680.03;;;18.74;44.94
14757;BME280;62446;53.214;10.398;2022-07-29T03:34:26;101677.50;;;18.73;45.00
14757;BME280;62446;53.214;10.398;2022-07-29T03:37:29;101674.97;;;18.71;45.08
14757;BME280;62446;53.214;10.398;2022-07-29T03:40:35;101673.34;;;18.75;45.01
14757;BME280;62446;53.214;10.398;2022-07-29T03:43:42;101672.22;;;18.76;44.96
14757;BME280;62446;53.214;10.398;2022-07-29T03:46:51;101670.56;;;18.75;44.89
14757;BME280;62446;53.214;10.398;2022-07-29T03:50:02;101670.56;;;18.75;45.12
14757;BME280;62446;53.214;10.398;2022-07-29T03:53:12;101668.84;;;18.74;44.88
14757;BME280;62446;53.214;10.398;2022-07-29T03:56:16;101670.56;;;18.75;44.85
14757;BME280;62446;53.214;10.398;2022-07-29T03:59:23;101663.28;;;18.74;44.75
14757;BME280;62446;53.214;10.398;2022-07-29T04:02:27;101663.28;;;18.74;44.75
14757;BME280;62446;53.214;10.398;2022-07-29T04:05:33;101664.97;;;18.75;44.81
14757;BME280;62446;53.214;10.398;2022-07-29T04:08:38;101661.56;;;18.73;44.78
14757;BME280;62446;53.214;10.398;2022-07-29T04:11:42;101656.00;;;18.73;44.84
14757;BME280;62446;53.214;10.398;2022-07-29T04:15:05;101654.31;;;18.72;44.77
14757;BME280;62446;53.214;10.398;2022-07-29T04:18:09;101659.06;;;18.72;44.71
14757;BME280;62446;53.214;10.398;2022-07-29T04:21:14;101656.00;;;18.73;44.77
14757;BME280;62446;53.214;10.398;2022-07-29T04:24:18;101659.91;;;18.72;44.81
14757;BME280;62446;53.214;10.398;2022-07-29T04:27:22;101657.34;;;18.71;44.76
14757;BME280;62446;53.214;10.398;2022-07-29T04:30:26;101663.81;;;18.71;44.63
14757;BME280;62446;53.214;10.398;2022-07-29T04:33:31;101656.53;;;18.70;44.70
14757;BME280;62446;53.214;10.398;2022-07-29T04:36:36;101661.56;;;18.73;44.75
14757;BME280;62446;53.214;10.398;2022-07-29T04:39:40;101669.41;;;18.71;44.61
14757;BME280;62446;53.214;10.398;2022-07-29T04:42:43;101671.09;;;18.72;44.59
14757;BME280;62446;53.214;10.398;2022-07-29T04:45:50;101668.81;;;18.69;44.71
14757;BME280;62446;53.214;10.398;2022-07-29T04:48:54;101675.53;;;18.68;44.65
14757;BME280;62446;53.214;10.398;2022-07-29T04:51:59;101669.66;;;18.70;44.62
14757;BME280;62446;53.214;10.398;2022-07-29T04:55:05;101679.41;;;18.67;44.68
14757;BME280;62446;53.214;10.398;2022-07-29T04:58:08;101674.09;;;18.66;44.77
14757;BME280;62446;53.214;10.398;2022-07-29T05:01:12;101679.41;;;18.67;44.80
14757;BME280;62446;53.214;10.398;2022-07-29T05:04:17;101671.03;;;18.67;44.64
14757;BME280;62446;53.214;10.398;2022-07-29T05:07:23;101664.34;;;18.68;44.55
14757;BME280;62446;53.214;10.398;2022-07-29T05:10:27;101674.38;;;18.69;44.54
14757;BME280;62446;53.214;10.398;2022-07-29T05:13:31;101669.41;;;18.71;44.49
14757;BME280;62446;53.214;10.398;2022-07-29T05:16:47;101674.97;;;18.71;44.61
14757;BME280;62446;53.214;10.398;2022-07-29T05:19:53;101678.88;;;18.70;44.56
14757;BME280;62446;53.214;10.398;2022-07-29T05:23:00;101682.19;;;18.67;44.75
14757;BME280;62446;53.214;10.398;2022-07-29T05:26:04;101678.25;;;18.63;44.70
14757;BME280;62446;53.214;10.398;2022-07-29T05:29:08;101676.56;;;18.62;44.42
14757;BME280;62446;53.214;10.398;2022-07-29T05:32:32;101680.47;;;18.61;44.78
14757;BME280;62446;53.214;10.398;2022-07-29T05:35:36;101685.19;;;18.60;44.75
14757;BME280;62446;53.214;10.398;2022-07-29T05:38:41;101679.06;;;18.58;44.80
14757;BME280;62446;53.214;10.398;2022-07-29T05:41:45;101677.88;;;18.54;44.92
14757;BME280;62446;53.214;10.398;2022-07-29T05:44:53;101684.34;;;18.55;44.90
14757;BME280;62446;53.214;10.398;2022-07-29T05:47:57;101681.53;;;18.55;45.05
14757;BME280;62446;53.214;10.398;2022-07-29T05:51:01;101675.09;;;18.54;44.82
14757;BME280;62446;53.214;10.398;2022-07-29T05:54:07;101674.25;;;18.54;44.81
14757;BME280;62446;53.214;10.398;2022-07-29T05:57:15;101678.75;;;18.55;44.93
14757;BME280;62446;53.214;10.398;2022-07-29T06:00:19;101680.94;;;18.53;44.96
14757;BME280;62446;53.214;10.398;2022-07-29T06:03:23;101673.66;;;18.52;44.94
14757;BME280;62446;53.214;10.398;2022-07-29T06:06:27;101668.69;;;18.54;44.75
14757;BME280;62446;53.214;10.398;2022-07-29T06:09:32;101672.03;;;18.56;44.72
14757;BME280;62446;53.214;10.398;2022-07-29T06:12:37;101669.84;;;18.58;44.80
14757;BME280;62446;53.214;10.398;2022-07-29T06:15:41;101675.09;;;18.54;44.81
14757;BME280;62446;53.214;10.398;2022-07-29T06:18:45;101674.25;;;18.54;44.84
14757;BME280;62446;53.214;10.398;2022-07-29T06:21:49;101675.38;;;18.53;44.88
14757;BME280;62446;53.214;10.398;2022-07-29T06:24:54;101678.16;;;18.53;44.90
14757;BME280;62446;53.214;10.398;2022-07-29T06:27:58;101678.16;;;18.53;44.97
14757;BME280;62446;53.214;10.398;2022-07-29T06:31:02;101672.56;;;18.53;44.83
14757;BME280;62446;53.214;10.398;2022-07-29T06:34:06;101667.00;;;18.53;44.85
14757;BME280;62446;53.214;10.398;2022-07-29T06:37:10;101670.63;;;18.53;44.76
14757;BME280;62446;53.214;10.398;2022-07-29T06:40:18;101667.84;;;18.53;44.73
14757;BME280;62446;53.214;10.398;2022-07-29T06:43:41;101663.94;;;18.54;44.78
14757;BME280;62446;53.214;10.398;2022-07-29T06:46:56;101663.94;;;18.54;44.78
14757;BME280;62446;53.214;10.398;2022-07-29T06:49:59;101668.69;;;18.54;45.06
14757;BME280;62446;53.214;10.398;2022-07-29T06:53:09;101669.50;;;18.54;44.93
14757;BME280;62446;53.214;10.398;2022-07-29T06:56:15;101660.03;;;18.55;44.88
14757;BME280;62446;53.214;10.398;2022-07-29T06:59:18;101656.16;;;18.56;44.90
14757;BME280;62446;53.214;10.398;2022-07-29T07:02:33;101665.91;;;18.59;44.85
14757;BME280;62446;53.214;10.398;2022-07-29T07:05:37;101651.69;;;18.60;44.83
14757;BME280;62446;53.214;10.398;2022-07-29T07:08:41;101658.13;;;18.61;44.66
14757;BME280;62446;53.214;10.398;2022-07-29T07:11:46;101650.59;;;18.62;44.69
14757;BME280;62446;53.214;10.398;2022-07-29T07:14:51;101654.22;;;18.62;44.78
14757;BME280;62446;53.214;10.398;2022-07-29T07:17:55;101658.44;;;18.65;44.73
14757;BME280;62446;53.214;10.398;2022-07-29T07:20:59;101655.38;;;18.66;44.72
14757;BME280;62446;53.214;10.398;2022-07-29T07:24:04;101657.06;;;18.67;44.66
14757;BME280;62446;53.214;10.398;2022-07-29T07:27:09;101654.84;;;18.69;44.63
14757;BME280;62446;53.214;10.398;2022-07-29T07:30:13;101662.13;;;18.70;44.68
14757;BME280;62446;53.214;10.398;2022-07-29T07:33:18;101664.97;;;18.75;44.52
14757;BME280;62446;53.214;10.398;2022-07-29T07:36:22;101654.91;;;18.80;44.60
14757;BME280;62446;53.214;10.398;2022-07-29T07:39:26;101658.31;;;18.87;44.97
14757;BME280;62446;53.214;10.398;2022-07-29T07:42:31;101657.31;;;18.93;44.87
14757;BME280;62446;53.214;10.398;2022-07-29T07:45:35;101651.75;;;18.98;44.99
14757;BME280;62446;53.214;10.398;2022-07-29T07:48:40;101650.66;;;19.04;45.00
14757;BME280;62446;53.214;10.398;2022-07-29T07:51:44;101645.94;;;19.10;44.98
14757;BME280;62446;53.214;10.398;2022-07-29T07:54:52;101645.13;;;19.15;45.02
14757;BME280;62446;53.214;10.398;2022-07-29T07:57:57;101645.19;;;19.20;45.04
14757;BME280;62446;53.214;10.398;2022-07-29T08:01:01;101635.16;;;19.24;45.24
14757;BME280;62446;53.214;10.398;2022-07-29T08:04:06;101633.47;;;19.28;45.06
14757;BME280;62446;53.214;10.398;2022-07-29T08:07:10;101641.06;;;19.33;45.06
14757;BME280;62446;53.214;10.398;2022-07-29T08:10:15;101640.16;;;19.22;45.28
14757;BME280;62446;53.214;10.398;2022-07-29T08:13:40;101640.16;;;19.22;45.76
14757;BME280;62446;53.214;10.398;2022-07-29T08:16:44;101642.41;;;19.20;45.63
14757;BME280;62446;53.214;10.398;2022-07-29T08:19:48;101640.13;;;19.17;45.52
14757;BME280;62446;53.214;10.398;2022-07-29T08:22:52;101646.84;;;19.16;45.37
14757;BME280;62446;53.214;10.398;2022-07-29T08:25:56;101645.13;;;19.15;45.44
14757;BME280;62446;53.214;10.398;2022-07-29T08:29:01;101638.44;;;19.16;45.35
14757;BME280;62446;53.214;10.398;2022-07-29T08:32:05;101629.78;;;19.12;45.46
14757;BME280;62446;53.214;10.398;2022-07-29T08:35:09;101631.44;;;19.13;45.39
14757;BME280;62446;53.214;10.398;2022-07-29T08:38:13;101632.31;;;19.14;45.44
14757;BME280;62446;53.214;10.398;2022-07-29T08:41:18;101642.34;;;19.15;45.41
14757;BME280;62446;53.214;10.398;2022-07-29T08:44:23;101631.75;;;19.17;45.45
14757;BME280;62446;53.214;10.398;2022-07-29T08:47:33;101632.91;;;19.21;45.19
14757;BME280;62446;53.214;10.398;2022-07-29T08:50:40;101628.69;;;19.23;45.52
14757;BME280;62446;53.214;10.398;2022-07-29T08:53:49;101632.38;;;19.29;45.53
14757;BME280;62446;53.214;10.398;2022-07-29T08:56:54;101634.91;;;19.31;45.54
14757;BME280;62446;53.214;10.398;2022-07-29T09:00:01;101633.47;;;19.28;45.46
14757;BME280;62446;53.214;10.398;2022-07-29T09:03:17;101628.97;;;19.22;45.56
14757;BME280;62446;53.214;10.398;2022-07-29T09:06:22;101624.03;;;19.39;44.96
14757;BME280;62446;53.214;10.398;2022-07-29T09:09:28;101617.09;;;19.52;44.93
14757;BME280;62446;53.214;10.398;2022-07-29T09:12:33;101614.63;;;19.61;44.73
14757;BME280;62446;53.214;10.398;2022-07-29T09:15:41;101609.06;;;19.66;44.85
14757;BME280;62446;53.214;10.398;2022-07-29T09:18:45;101614.69;;;19.71;44.81
14757;BME280;62446;53.214;10.398;2022-07-29T09:21:49;101608.31;;;19.81;44.85
14757;BME280;62446;53.214;10.398;2022-07-29T09:25:05;101617.56;;;19.87;44.60
14757;BME280;62446;53.214;10.398;2022-07-29T09:28:11;101614.78;;;19.97;45.50
14757;BME280;62446;53.214;10.398;2022-07-29T09:31:17;101613.94;;;20.02;44.58
14757;BME280;62446;53.214;10.398;2022-07-29T09:34:24;101615.63;;;20.03;44.43
14757;BME280;62446;53.214;10.398;2022-07-29T09:37:28;101614.22;;;19.95;45.11
14757;BME280;62446;53.214;10.398;2022-07-29T09:40:32;101620.97;;;20.09;44.75
14757;BME280;62446;53.214;10.398;2022-07-29T09:43:36;101615.09;;;20.06;44.71
14757;BME280;62446;53.214;10.398;2022-07-29T09:46:54;101603.63;;;20.18;44.56
14757;BME280;62446;53.214;10.398;2022-07-29T09:50:00;101604.19;;;20.20;44.54
14757;BME280;62446;53.214;10.398;2022-07-29T09:53:04;101604.19;;;20.20;44.54
14757;BME280;62446;53.214;10.398;2022-07-29T09:56:08;101604.47;;;20.39;44.43
14757;BME280;62446;53.214;10.398;2022-07-29T09:59:13;101606.44;;;20.38;44.03
14757;BME280;62446;53.214;10.398;2022-07-29T10:02:18;101604.22;;;20.35;44.29
14757;BME280;62446;53.214;10.398;2022-07-29T10:05:26;101606.16;;;20.34;44.05
14757;BME280;62446;53.214;10.398;2022-07-29T10:08:38;101608.41;;;20.32;43.97
14757;BME280;62446;53.214;10.398;2022-07-29T10:12:03;101600.28;;;20.31;44.19
14757;BME280;62446;53.214;10.398;2022-07-29T10:15:08;101600.00;;;20.32;44.36
14757;BME280;62446;53.214;10.398;2022-07-29T10:18:14;101597.19;;;20.32;44.53
14757;BME280;62446;53.214;10.398;2022-07-29T10:21:23;101587.09;;;20.16;45.22
14757;BME280;62446;53.214;10.398;2022-07-29T10:24:38;101587.97;;;20.32;44.84
14757;BME280;62446;53.214;10.398;2022-07-29T10:27:42;101582.91;;;20.34;45.07
14757;BME280;62446;53.214;10.398;2022-07-29T10:30:46;101579.28;;;20.33;45.01
14757;BME280;62446;53.214;10.398;2022-07-29T10:34:03;101572.53;;;20.34;44.95
14757;BME280;62446;53.214;10.398;2022-07-29T10:37:14;101571.44;;;20.36;44.94
14757;BME280;62446;53.214;10.398;2022-07-29T10:40:29;101571.44;;;20.36;45.16
14757;BME280;62446;53.214;10.398;2022-07-29T10:44:01;101562.75;;;20.37;45.22
14757;BME280;62446;53.214;10.398;2022-07-29T10:47:05;101566.09;;;20.39;45.19
14757;BME280;62446;53.214;10.398;2022-07-29T10:50:12;101571.16;;;20.37;45.01
14757;BME280;62446;53.214;10.398;2022-07-29T10:53:18;101558.84;;;20.38;45.36
14757;BME280;62446;53.214;10.398;2022-07-29T10:56:24;101558.84;;;20.38;45.43
14757;BME280;62446;53.214;10.398;2022-07-29T10:59:28;101546.50;;;20.39;45.21
14757;BME280;62446;53.214;10.398;2022-07-29T11:02:42;101552.66;;;20.41;45.54
14757;BME280;62446;53.214;10.398;2022-07-29T11:05:56;101547.06;;;20.41;45.44
14757;BME280;62446;53.214;10.398;2022-07-29T11:09:15;101549.88;;;20.41;45.27
14757;BME280;62446;53.214;10.398;2022-07-29T11:12:48;101556.03;;;20.38;45.56
14757;BME280;62446;53.214;10.398;2022-07-29T11:15:53;101551.00;;;20.35;45.10
14757;BME280;62446;53.214;10.398;2022-07-29T11:19:20;101551.56;;;20.32;45.39
14757;BME280;62446;53.214;10.398;2022-07-29T11:22:35;101544.56;;;20.29;45.17
14757;BME280;62446;53.214;10.398;2022-07-29T11:26:13;101546.78;;;20.27;45.11
14757;BME280;62446;53.214;10.398;2022-07-29T11:29:21;101543.16;;;20.27;44.83
14757;BME280;62446;53.214;10.398;2022-07-29T11:32:35;101541.44;;;20.26;44.79
14757;BME280;62446;53.214;10.398;2022-07-29T11:35:41;101541.19;;;20.22;45.15
14757;BME280;62446;53.214;10.398;2022-07-29T11:39:27;101533.06;;;20.21;45.12
14757;BME280;62446;53.214;10.398;2022-07-29T11:42:40;101528.03;;;20.18;45.05
14757;BME280;62446;53.214;10.398;2022-07-29T11:45:46;101534.19;;;20.14;45.15
14757;BME280;62446;53.214;10.398;2022-07-29T11:48:51;101529.13;;;20.11;45.08
14757;BME280;62446;53.214;10.398;2022-07-29T11:51:57;101531.38;;;20.09;45.02
14757;BME280;62446;53.214;10.398;2022-07-29T11:55:06;101526.06;;;20.08;45.25
14757;BME280;62446;53.214;10.398;2022-07-29T11:58:11;101531.09;;;20.06;45.04
14757;BME280;62446;53.214;10.398;2022-07-29T12:01:16;101529.69;;;20.03;45.36
14757;BME280;62446;53.214;10.398;2022-07-29T12:04:20;101524.38;;;20.02;45.29
14757;BME280;62446;53.214;10.398;2022-07-29T12:07:28;101525.22;;;20.02;43.46
14757;BME280;62446;53.214;10.398;2022-07-29T12:10:38;101533.06;;;20.00;42.85
14757;BME280;62446;53.214;10.398;2022-07-29T12:13:43;101513.75;;;19.98;42.89
14757;BME280;62446;53.214;10.398;2022-07-29T12:16:50;101512.34;;;19.96;43.01
14757;BME280;62446;53.214;10.398;2022-07-29T12:19:57;101519.03;;;19.95;42.58
14757;BME280;62446;53.214;10.398;2022-07-29T12:23:06;101512.34;;;19.96;42.43
14757;BME280;62446;53.214;10.398;2022-07-29T12:26:11;101507.84;;;19.95;42.65
14757;BME280;62446;53.214;10.398;2022-07-29T12:29:27;101509.53;;;19.96;42.09
14757;BME280;62446;53.214;10.398;2022-07-29T12:32:38;101503.94;;;19.96;42.48
14757;BME280;62446;53.214;10.398;2022-07-29T12:35:44;101498.06;;;19.97;42.51
14757;BME280;62446;53.214;10.398;2022-07-29T12:39:05;101496.38;;;19.96;42.48
14757;BME280;62446;53.214;10.398;2022-07-29T12:42:15;101491.06;;;19.95;42.46
14757;BME280;62446;53.214;10.398;2022-07-29T12:45:28;101497.22;;;19.97;42.34
14757;BME280;62446;53.214;10.398;2022-07-29T12:48:33;101491.63;;;19.97;42.20
14757;BME280;62446;53.214;10.398;2022-07-29T12:51:38;101487.16;;;19.96;41.74
14757;BME280;62446;53.214;10.398;2022-07-29T12:54:46;101483.25;;;19.97;41.41
14757;BME280;62446;53.214;10.398;2022-07-29T12:57:51;101482.97;;;19.98;41.48
14757;BME280;62446;53.214;10.398;2022-07-29T13:01:17;101482.69;;;20.00;40.99
14757;BME280;62446;53.214;10.398;2022-07-29T13:04:26;101468.41;;;20.02;41.23
14757;BME280;62446;53.214;10.398;2022-07-29T13:07:32;101463.91;;;20.01;41.06
14757;BME280;62446;53.214;10.398;2022-07-29T13:10:57;101463.63;;;20.02;41.59
14757;BME280;62446;53.214;10.398;2022-07-29T13:14:03;101457.47;;;20.05;41.13
14757;BME280;62446;53.214;10.398;2022-07-29T13:18:01;101459.72;;;20.13;40.54
14757;BME280;62446;53.214;10.398;2022-07-29T13:21:10;101460.28;;;20.21;41.08
14757;BME280;62446;53.214;10.398;2022-07-29T13:24:14;101453.53;;;20.27;41.22
14757;BME280;62446;53.214;10.398;2022-07-29T13:27:23;101450.19;;;20.35;40.29
14757;BME280;62446;53.214;10.398;2022-07-29T13:30:27;101454.06;;;20.39;39.98
14757;BME280;62446;53.214;10.398;2022-07-29T13:33:33;101454.06;;;20.44;40.31
14757;BME280;62446;53.214;10.398;2022-07-29T13:36:36;101449.91;;;20.47;40.41
14757;BME280;62446;53.214;10.398;2022-07-29T13:39:43;101451.84;;;20.52;39.99
14757;BME280;62446;53.214;10.398;2022-07-29T13:42:54;101442.31;;;20.58;39.58
14757;BME280;62446;53.214;10.398;2022-07-29T13:45:58;101429.94;;;20.64;39.68
14757;BME280;62446;53.214;10.398;2022-07-29T13:49:03;101426.28;;;20.68;39.72
14757;BME280;62446;53.214;10.398;2022-07-29T13:52:07;101428.25;;;20.73;39.60
14757;BME280;62446;53.214;10.398;2022-07-29T13:55:11;101431.84;;;20.79;39.69
14757;BME280;62446;53.214;10.398;2022-07-29T13:58:15;101430.72;;;20.85;38.78
14757;BME280;62446;53.214;10.398;2022-07-29T14:01:19;101435.19;;;20.91;39.15
14757;BME280;62446;53.214;10.398;2022-07-29T14:04:24;101437.13;;;20.96;38.58
14757;BME280;62446;53.214;10.398;2022-07-29T14:07:29;101435.13;;;20.96;38.33
14757;BME280;62446;53.214;10.398;2022-07-29T14:10:33;101437.69;;;20.93;38.34
14757;BME280;62446;53.214;10.398;2022-07-29T14:13:36;101430.41;;;20.92;38.33
14757;BME280;62446;53.214;10.398;2022-07-29T14:16:41;101430.97;;;20.94;38.67
14757;BME280;62446;53.214;10.398;2022-07-29T14:19:54;101418.06;;;20.88;38.68
14757;BME280;62446;53.214;10.398;2022-07-29T14:22:58;101428.50;;;20.82;39.17
14757;BME280;62446;53.214;10.398;2022-07-29T14:26:02;101416.47;;;20.76;39.16
14757;BME280;62446;53.214;10.398;2022-07-29T14:29:10;101414.81;;;20.70;39.49
14757;BME280;62446;53.214;10.398;2022-07-29T14:32:14;101426.56;;;20.67;39.56
14757;BME280;62446;53.214;10.398;2022-07-29T14:35:19;101417.09;;;20.63;39.93
14757;BME280;62446;53.214;10.398;2022-07-29T14:38:23;101414.81;;;20.60;40.11
14757;BME280;62446;53.214;10.398;2022-07-29T14:41:28;101417.38;;;20.56;39.98
14757;BME280;62446;53.214;10.398;2022-07-29T14:44:32;101427.19;;;20.54;40.42
14757;BME280;62446;53.214;10.398;2022-07-29T14:47:37;101412.06;;;20.49;40.25
14757;BME280;62446;53.214;10.398;2022-07-29T14:50:42;101403.13;;;20.47;40.17
14757;BME280;62446;53.214;10.398;2022-07-29T14:53:46;101407.28;;;20.45;40.66
14757;BME280;62446;53.214;10.398;2022-07-29T14:56:49;101412.63;;;20.41;40.53
14757;BME280;62446;53.214;10.398;2022-07-29T14:59:57;101418.50;;;20.40;40.77
14757;BME280;62446;53.214;10.398;2022-07-29T15:03:01;101407.88;;;20.37;40.98
14757;BME280;62446;53.214;10.398;2022-07-29T15:06:06;101412.63;;;20.36;41.02
14757;BME280;62446;53.214;10.398;2022-07-29T15:09:10;101404.78;;;20.33;41.13
14757;BME280;62446;53.214;10.398;2022-07-29T15:12:14;101407.59;;;20.33;40.81
14757;BME280;62446;53.214;10.398;2022-07-29T15:15:17;101401.16;;;20.32;40.93
14757;BME280;62446;53.214;10.398;2022-07-29T15:18:21;101393.06;;;20.31;41.05
14757;BME280;62446;53.214;10.398;2022-07-29T15:21:28;101403.38;;;20.30;40.95
14757;BME280;62446;53.214;10.398;2022-07-29T15:24:32;101394.16;;;20.30;41.27
14757;BME280;62446;53.214;10.398;2022-07-29T15:27:37;101389.69;;;20.29;41.19
14757;BME280;62446;53.214;10.398;2022-07-29T15:30:40;101385.22;;;20.28;41.50
14757;BME280;62446;53.214;10.398;2022-07-29T15:33:44;101382.41;;;20.28;41.38
14757;BME280;62446;53.214;10.398;2022-07-29T15:36:49;101385.50;;;20.26;41.38
14757;BME280;62446;53.214;10.398;2022-07-29T15:39:55;101384.66;;;20.26;41.60
14757;BME280;62446;53.214;10.398;2022-07-29T15:43:03;101386.91;;;20.24;41.23
14757;BME280;62446;53.214;10.398;2022-07-29T15:46:08;101377.94;;;20.22;41.58
14757;BME280;62446;53.214;10.398;2022-07-29T15:49:30;101389.13;;;20.22;41.57
14757;BME280;62446;53.214;10.398;2022-07-29T15:52:51;101377.38;;;20.20;41.86
14757;BME280;62446;53.214;10.398;2022-07-29T15:55:55;101375.69;;;20.19;41.94
14757;BME280;62446;53.214;10.398;2022-07-29T15:58:59;101379.66;;;20.18;41.74
14757;BME280;62446;53.214;10.398;2022-07-29T16:02:03;101382.44;;;20.18;42.08
14757;BME280;62446;53.214;10.398;2022-07-29T16:05:07;101375.16;;;20.16;41.83
14757;BME280;62446;53.214;10.398;2022-07-29T16:08:13;101374.03;;;20.18;42.01